METAR AND TAF INFORMATION
METAR FOR SAOC
ADDS - METARS form results

(2015 UTC 17 February 2019)
Data provider http://aviationweather.gov/metar/data/
 
METAR text: SAOC 172000Z 05020KT CAVOK 29/18 Q1009
Conditions at: SAOC (RIO CUARTO AIRPO, AR) observed 2000 UTC 17 February 2019
Temperature: 29.0°C (84°F)
Dewpoint: 18.0°C (64°F) [RH = 52%]
Pressure (altimeter): 29.79 inches Hg (1009.0 mb)
Winds: from the NE (50 degrees) at 23 MPH (20 knots; 10.3 m/s)
Visibility: 6 or more miles (10+ km)
Ceiling: ceiling and visibility are OK
Clouds: unknown
Weather: no significant weather observed at this time

 AIRPORT MAP

 RUNWAY INFORMATION
Runway 18 Runway length 6808 ft Runway width 131 ft
Runway elevation 0 ft Runway displaced threshold 0 ft Runway heading 0
Runway 36 Runway length 6808 ft Runway width 131 ft
Runway elevation 0 ft Runway displaced threshold 0 ft Runway heading 0
Runway 5 Runway length 7431 ft Runway width 148 ft
Runway elevation 1381 ft Runway displaced threshold 0 ft Runway heading 178
Runway 23 Runway length 7431 ft Runway width 148 ft
Runway elevation 1381 ft Runway displaced threshold 0 ft Runway heading 358

 AIRPORT FREQUENCIES
Type APP Name APP/TWR Frequency 118.75 MHZ

 AIRPORT NEAR NAVIGATION AIDS
Type VOR Name Rio Cuarto Frequency 114200 KHZ